CheckWX is a tool to help pilots better visualize weather data.  It is not intended as a substitute for an official pre-flight weather briefing.

15:21:13 UTC

LEBR METAR
Bardenas Reales Airport
Bardenas Reales, Spain
Current

21 mins ago

LEBR 281500Z AUTO 30006KT 200V360 9999 NCD 18/M01 Q1017
Observed
Mar-28 @ 15:00 UTC
Wind
  • 300° at 6 KTS
Visibility
10,000+ meters
Flight Rules
VFR
Cloud Levels
  • Clear skies
Temperature
18°C / 64°F
Dewpoint
-1°C / 30°F
Humidity
28%
Altimeter
30.03" Hg
Pressure
1016.92 hPa
Previous

51 mins ago

LEBR 281430Z AUTO VRB05KT 9999 NCD 19/M00 Q1017
Observed
Mar-28 @ 14:30 UTC
Wind
  • Variable at 5 KTS
Visibility
10,000+ meters
Flight Rules
VFR
Cloud Levels
  • Clear skies
Temperature
19°C / 66°F
Dewpoint
C / 32°F
Humidity
28%
Altimeter
30.03" Hg
Pressure
1016.92 hPa
Previous

1 hour ago

LEBR 281400Z AUTO 33005KT 290V030 9999 NCD 18/M01 Q1017
Observed
Mar-28 @ 14:00 UTC
Wind
  • 330° at 5 KTS
Visibility
10,000+ meters
Flight Rules
VFR
Cloud Levels
  • Clear skies
Temperature
18°C / 64°F
Dewpoint
-1°C / 30°F
Humidity
28%
Altimeter
30.03" Hg
Pressure
1016.92 hPa